Terminal Aerodrome Forecast
Issued by NWS

Home | Current Version | Previous Version | Text Only | Print | Product List | Glossary On
Versions: 1 2 3 4 5 6 7 8 9 10 11 12 13 14
000
FTUS44 KLZK 012320
TAFBPK
TAF
KBPK 012320Z 0200/0224 VRB05KT P6SM SCT250
      TEMPO 0209/0213 4SM BR
     FM021500 18005KT P6SM SCT050=

USA.gov is the U.S. government's official web portal to all federal, state and local government web resources and services.